Leesburg, FL

12:44 PM EDT on October 02, 2014 (GMT -0400)
Cypress Creek | Change Station
CLOSE
Current Station
Personal Weather Station
Location: Leesburg, FL
Elevation: 82 ft
Nearby Weather Stations
Active Advisory: Flood Warning

Elev 82 ft 28.77 °N, 81.88 °W | Updated 10 seconds ago

Partly Cloudy
Partly Cloudy
86.9 °F
Feels Like 96 °F
N
0.2
Wind Variable Wind from East
Gusts 2.5 mph

Today
High -- | Low -- °F
--% Chance of Precip.
Yesterday
High -- | Low -- °F
Precip. -- in
7:21 AM 7:12 PM
First Quarter, 60% visible
Pressure 30.06 in
Visibility 10.0 miles
Clouds Few 2400 ft
Scattered Clouds 6000 ft
Heat Index 96 °F
Dew Point 75 °F
Humidity 68%
Rainfall 0.00 in
Snow Depth Not available.
UV 8 out of 12
Pollen 6.80 out of 12
Air Quality Not available.
Flu Activity Not available.
METAR KLEE 021553Z 17007KT 10SM FEW024 SCT060 29/24 A3007 RMK AO2 SLP180 T02940239

More Conditions Fewer Conditions

Pressure 30.06 in
Visibility 10.0 miles
Clouds Few 2400 ft
Scattered Clouds 6000 ft
Heat Index 96 °F
Dew Point 75 °F
Humidity 68%
Rainfall 0.00 in
Snow Depth Not available.
UV 8 out of 12
Pollen 6.80 out of 12
Air Quality Not available.
Flu Activity Not available.
METAR KLEE 021553Z 17007KT 10SM FEW024 SCT060 29/24 A3007 RMK AO2 SLP180 T02940239

More Conditions Fewer Conditions

Nowcast | as of 12:15 PM EDT on October 2, 2014

Through early afternoon...widely scattered showers and a few storms will develop in the afternoon heat and humidity. They will gradually increase in both number and intensity as the afternoon wears on. Early activity will generally take place north of the Florida Turnpike while moving slowly inland toward the southwest at 5 to 10 mph. Many places have not dried out from recent generous rains...so a concern exists for localized impacts from any isolated heavy rain. Additional details...including graphics are available online at: http://www.Srh.NOAA.Gov/mlb/blog.Php

×

10-Day Weather Forecast

Almanac

Astronomy

Oct. 02, 2014 Rise Set
Actual Time 7:21 AM EDT 7:12 PM EDT
Civil Twilight 6:57 AM EDT 7:35 PM EDT
Nautical Twilight 6:30 AM EDT 8:03 PM EDT
Astronomical Twilight 6:02 AM EDT 8:30 PM EDT
Moon 2:52 PM EDT 1:02 AM EDT
Length of Visible Light 12h 38m
Length of Day
11h 50m
Tomorrow will be 1m 42s shorter.
First Quarter, 60% of the Moon is Illuminated
Today
First Quarter
Oct 8
Full
Oct 15
Last Quarter
Oct 23
New
Oct 30
First Quarter

Today's Extremes

State Highs State Lows

Community

WunderPhotos

Upload Photos

1,758,294 photos uploaded!

WunderBlogs® & News

Nearby

Snow Depth

Station Depth Elevation
No new snow has been reported.

Earthquake Activity

City Distance Mag. Time & Date
No recent earthquake activity has been reported nearby.
Minimum magnitude displayed is 2.5.

Coastal Water Temperatures

Place Temperature
No Stations Reporting

Nearby Weather Stations